createdAt,value
2022-12-11T00:00:43.345Z,6.93
2022-12-11T00:03:15.904Z,7.87
2022-12-11T00:05:47.467Z,7.10
2022-12-11T00:08:16.478Z,7.33
2022-12-11T00:10:50.988Z,6.90
2022-12-11T00:13:19.971Z,6.53
2022-12-11T00:15:49.004Z,6.97
2022-12-11T00:18:18.039Z,6.97
2022-12-11T00:20:48.576Z,6.63
2022-12-11T00:23:17.714Z,6.27
2022-12-11T00:25:47.920Z,6.60
2022-12-11T00:28:19.024Z,6.80
2022-12-11T00:30:48.768Z,6.87
2022-12-11T00:33:17.929Z,11.43
2022-12-11T00:35:49.447Z,7.00
2022-12-11T00:38:20.187Z,6.27
2022-12-11T00:40:50.321Z,6.30
2022-12-11T00:43:19.640Z,7.00
2022-12-11T00:45:49.457Z,8.90
2022-12-11T00:48:18.612Z,8.80
2022-12-11T00:50:49.075Z,8.00
2022-12-11T00:53:18.338Z,8.17
2022-12-11T00:55:47.340Z,9.27
2022-12-11T00:58:16.806Z,8.37
2022-12-11T01:00:48.486Z,8.67
2022-12-11T01:03:18.898Z,8.67
2022-12-11T01:05:56.419Z,9.30
2022-12-11T01:08:25.615Z,9.00
2022-12-11T01:11:02.719Z,8.90
2022-12-11T01:13:31.851Z,8.83
2022-12-11T01:16:00.938Z,8.53
2022-12-11T01:18:29.988Z,8.83
2022-12-11T01:21:00.509Z,8.57
2022-12-11T01:23:29.712Z,8.47
2022-12-11T01:25:58.735Z,7.90
2022-12-11T01:28:27.762Z,7.87
2022-12-11T01:30:56.890Z,7.13
2022-12-11T01:33:25.933Z,6.80
2022-12-11T01:35:55.464Z,6.40
2022-12-11T01:38:25.919Z,6.67
2022-12-11T01:40:54.896Z,7.93
2022-12-11T01:43:24.034Z,7.37
2022-12-11T01:45:53.195Z,8.50
2022-12-11T01:48:25.431Z,8.50
2022-12-11T01:50:57.023Z,8.57
2022-12-11T01:53:31.448Z,7.73
2022-12-11T01:56:01.317Z,8.47
2022-12-11T01:58:35.380Z,7.73
2022-12-11T02:01:05.065Z,8.00
2022-12-11T02:03:34.248Z,7.43
2022-12-11T02:06:04.009Z,7.20
2022-12-11T02:08:34.606Z,8.47
2022-12-11T02:11:13.097Z,7.53
2022-12-11T02:13:52.003Z,7.47
2022-12-11T02:16:27.922Z,8.57
2022-12-11T02:19:04.423Z,11.37
2022-12-11T02:21:39.166Z,8.37
2022-12-11T02:24:51.215Z,7.53
2022-12-11T02:27:30.889Z,7.50
2022-12-11T02:30:05.575Z,7.70
2022-12-11T02:32:39.940Z,7.70
2022-12-11T02:35:14.588Z,7.17
2022-12-11T02:37:46.343Z,8.00
2022-12-11T02:40:18.473Z,7.40
2022-12-11T02:42:49.740Z,7.13
2022-12-11T02:45:22.104Z,7.33
2022-12-11T02:47:52.041Z,7.10
2022-12-11T02:50:24.465Z,7.00
2022-12-11T02:52:57.370Z,6.73
2022-12-11T02:55:29.658Z,6.17
2022-12-11T02:58:05.830Z,6.37
2022-12-11T03:00:36.466Z,6.33
2022-12-11T03:03:05.860Z,5.73
2022-12-11T03:05:35.313Z,5.73
2022-12-11T03:08:04.629Z,5.50
2022-12-11T03:10:33.799Z,4.63
2022-12-11T03:13:04.194Z,4.93
2022-12-11T03:15:42.245Z,4.87
2022-12-11T03:18:19.495Z,4.50
2022-12-11T03:20:56.093Z,3.47
2022-12-11T03:23:32.541Z,2.97
2022-12-11T03:26:04.998Z,2.83
2022-12-11T03:28:40.787Z,2.60
2022-12-11T03:31:14.777Z,2.37
2022-12-11T03:33:48.110Z,2.70
2022-12-11T03:36:22.005Z,2.90
2022-12-11T03:38:53.199Z,4.60
2022-12-11T03:41:25.724Z,3.10
2022-12-11T03:43:58.632Z,3.80
2022-12-11T03:46:32.604Z,3.17
2022-12-11T03:49:05.500Z,3.80
2022-12-11T03:51:37.353Z,3.53
2022-12-11T03:54:07.321Z,4.20
2022-12-11T03:56:38.576Z,3.90
2022-12-11T03:59:07.690Z,4.37
2022-12-11T04:01:38.292Z,3.97
2022-12-11T04:04:07.797Z,4.33
2022-12-11T04:06:36.907Z,4.70
2022-12-11T04:09:06.055Z,4.43
2022-12-11T04:11:38.487Z,6.13
2022-12-11T04:14:27.056Z,5.17
2022-12-11T04:16:58.909Z,4.50
2022-12-11T04:19:45.473Z,4.33
2022-12-11T04:22:33.107Z,3.87
2022-12-11T04:25:02.770Z,3.83
2022-12-11T04:27:49.055Z,3.50
2022-12-11T04:30:20.821Z,4.37
2022-12-11T04:32:51.773Z,3.10
2022-12-11T04:35:21.602Z,3.07
2022-12-11T04:37:50.891Z,2.63
2022-12-11T04:40:21.457Z,2.50
2022-12-11T04:42:50.648Z,2.13
2022-12-11T04:45:20.114Z,2.00
2022-12-11T04:47:50.689Z,2.00
2022-12-11T04:50:20.827Z,1.70
2022-12-11T04:52:49.963Z,1.90
2022-12-11T04:55:19.189Z,2.60
2022-12-11T04:57:48.207Z,1.60
2022-12-11T05:00:18.248Z,2.60
2022-12-11T05:02:47.321Z,2.37
2022-12-11T05:05:17.964Z,5.20
2022-12-11T05:07:47.252Z,4.37
2022-12-11T05:10:16.304Z,2.80
2022-12-11T05:12:45.388Z,2.20
2022-12-11T05:15:14.385Z,1.77
2022-12-11T05:17:43.482Z,2.47
2022-12-11T05:20:13.234Z,2.40
2022-12-11T05:22:44.006Z,2.13
2022-12-11T05:25:13.440Z,2.50
2022-12-11T05:27:42.736Z,2.90
2022-12-11T05:30:12.632Z,3.40
2022-12-11T05:32:41.725Z,3.70
2022-12-11T05:35:11.783Z,2.83
2022-12-11T05:37:42.547Z,3.00
2022-12-11T05:40:13.303Z,2.90
2022-12-11T05:42:42.349Z,2.50
2022-12-11T05:45:12.515Z,2.40
2022-12-11T05:47:41.812Z,3.50
2022-12-11T05:50:11.357Z,1.80
2022-12-11T05:52:40.503Z,1.90
2022-12-11T05:55:11.641Z,1.87
2022-12-11T05:57:40.908Z,1.73
2022-12-11T06:00:11.662Z,1.57
2022-12-11T06:02:41.079Z,1.50
2022-12-11T06:05:10.717Z,1.40
2022-12-11T06:07:40.084Z,1.60
2022-12-11T06:10:11.603Z,1.47
2022-12-11T06:12:41.199Z,1.93
2022-12-11T06:15:11.243Z,1.43
2022-12-11T06:17:40.454Z,1.60
2022-12-11T06:20:10.382Z,1.50
2022-12-11T06:22:39.418Z,1.50
2022-12-11T06:25:10.026Z,1.63
2022-12-11T06:27:40.810Z,1.70
2022-12-11T06:30:11.648Z,1.80
2022-12-11T06:32:40.785Z,1.70
2022-12-11T06:35:10.436Z,1.70
2022-12-11T06:37:40.914Z,1.70
2022-12-11T06:40:11.990Z,1.70
2022-12-11T06:42:42.583Z,42.63
2022-12-11T06:45:12.885Z,46.63
2022-12-11T06:47:42.140Z,6.50
2022-12-11T06:50:11.923Z,3.00
2022-12-11T06:52:41.096Z,2.80
2022-12-11T06:55:11.203Z,2.10
2022-12-11T06:57:42.113Z,2.83
2022-12-11T07:00:12.424Z,2.40
2022-12-11T07:02:42.292Z,1.73
2022-12-11T07:05:11.727Z,2.10
2022-12-11T07:07:41.026Z,1.70
2022-12-11T07:10:11.210Z,1.70
2022-12-11T07:12:41.777Z,1.80
2022-12-11T07:15:11.921Z,2.60
2022-12-11T07:17:41.256Z,2.13
2022-12-11T07:20:11.379Z,1.97
2022-12-11T07:22:46.068Z,2.00
2022-12-11T07:25:15.697Z,2.00
2022-12-11T07:27:59.169Z,2.40
2022-12-11T07:30:28.685Z,2.50
2022-12-11T07:32:57.775Z,2.20
2022-12-11T07:35:26.912Z,2.27
2022-12-11T07:37:55.936Z,2.40
2022-12-11T07:40:24.881Z,2.80
2022-12-11T07:42:55.416Z,2.70
2022-12-11T07:45:26.519Z,2.00
2022-12-11T07:47:55.620Z,2.00
2022-12-11T07:50:25.292Z,3.03
2022-12-11T07:52:58.244Z,2.70
2022-12-11T07:55:30.043Z,2.40
2022-12-11T07:58:03.890Z,4.90
2022-12-11T08:00:34.366Z,2.00
2022-12-11T08:03:05.561Z,2.00
2022-12-11T08:05:37.534Z,2.00
2022-12-11T08:08:09.304Z,2.60
2022-12-11T08:10:40.362Z,2.97
2022-12-11T08:13:12.807Z,3.60
2022-12-11T08:15:44.546Z,2.67
2022-12-11T08:18:17.228Z,2.40
2022-12-11T08:20:48.210Z,2.53
2022-12-11T08:23:17.861Z,4.27
2022-12-11T08:25:46.902Z,2.00
2022-12-11T08:28:17.547Z,2.07
2022-12-11T08:30:46.793Z,2.17
2022-12-11T08:33:15.767Z,2.60
2022-12-11T08:35:46.663Z,3.53
2022-12-11T08:38:17.688Z,3.87
2022-12-11T08:40:50.052Z,4.93
2022-12-11T08:43:20.580Z,7.47
2022-12-11T08:45:49.727Z,10.23
2022-12-11T08:48:19.000Z,8.43
2022-12-11T08:50:48.039Z,4.97
2022-12-11T08:53:17.162Z,6.40
2022-12-11T08:55:46.355Z,9.33
2022-12-11T08:58:15.385Z,5.30
2022-12-11T09:00:45.887Z,7.97
2022-12-11T09:03:14.989Z,8.20
2022-12-11T09:05:43.927Z,4.57
2022-12-11T09:08:13.970Z,4.93
2022-12-11T09:10:43.031Z,4.87
2022-12-11T09:13:12.133Z,4.20
2022-12-11T09:15:42.827Z,3.40
2022-12-11T09:18:13.375Z,3.67
2022-12-11T09:20:46.247Z,4.30
2022-12-11T09:23:17.381Z,3.20
2022-12-11T09:25:49.983Z,3.07
2022-12-11T09:28:20.994Z,5.37
2022-12-11T09:30:50.888Z,2.80
2022-12-11T09:33:24.241Z,2.83
2022-12-11T09:36:01.519Z,4.00
2022-12-11T09:38:32.205Z,3.03
2022-12-11T09:41:01.800Z,2.93
2022-12-11T09:43:39.649Z,2.90
2022-12-11T09:46:13.086Z,3.90
2022-12-11T09:48:46.094Z,3.10
2022-12-11T09:51:23.783Z,4.47
2022-12-11T09:53:53.884Z,3.77
2022-12-11T09:56:27.189Z,3.43
2022-12-11T09:59:07.134Z,2.90
2022-12-11T10:01:47.100Z,3.20
2022-12-11T10:04:39.944Z,3.83
2022-12-11T10:07:17.571Z,3.00
2022-12-11T10:09:54.406Z,3.50
2022-12-11T10:12:35.100Z,3.47
2022-12-11T10:15:30.833Z,3.77
2022-12-11T10:18:05.230Z,4.70
2022-12-11T10:20:39.649Z,4.00
2022-12-11T10:23:10.491Z,3.30
2022-12-11T10:25:43.179Z,3.53
2022-12-11T10:28:14.825Z,3.27
2022-12-11T10:30:49.995Z,2.90
2022-12-11T10:33:23.673Z,3.00
2022-12-11T10:35:56.602Z,2.70
2022-12-11T10:38:30.415Z,3.13
2022-12-11T10:41:02.400Z,3.50
2022-12-11T10:43:36.619Z,2.80
2022-12-11T10:46:07.151Z,2.80
2022-12-11T10:48:38.194Z,3.00
2022-12-11T10:51:11.910Z,2.90
2022-12-11T10:53:43.499Z,2.90
2022-12-11T10:56:13.923Z,2.63
2022-12-11T10:58:51.404Z,2.87
2022-12-11T11:01:23.888Z,3.03
2022-12-11T11:03:59.241Z,2.80
2022-12-11T11:06:29.818Z,2.90
2022-12-11T11:09:01.008Z,3.13
2022-12-11T11:11:33.843Z,2.90
2022-12-11T11:14:08.925Z,3.23
2022-12-11T11:16:40.376Z,2.70
2022-12-11T11:19:18.234Z,3.20
2022-12-11T11:21:52.645Z,3.30
2022-12-11T11:24:36.609Z,4.20
2022-12-11T11:27:14.204Z,3.43
2022-12-11T11:29:46.688Z,3.40
2022-12-11T11:32:24.086Z,3.17
2022-12-11T11:34:53.223Z,2.90
2022-12-11T11:37:33.238Z,3.93
2022-12-11T11:40:09.815Z,3.77
2022-12-11T11:42:46.659Z,3.67
2022-12-11T11:45:22.265Z,3.50
2022-12-11T11:48:00.350Z,3.50
2022-12-11T11:50:35.271Z,3.57
2022-12-11T11:53:12.016Z,3.80
2022-12-11T11:55:48.758Z,4.57
2022-12-11T11:58:23.132Z,4.87
2022-12-11T12:00:55.258Z,4.20
2022-12-11T12:03:26.537Z,3.70
2022-12-11T12:06:00.086Z,4.23
2022-12-11T12:08:41.547Z,3.90
2022-12-11T12:11:19.213Z,4.00
2022-12-11T12:13:55.837Z,4.10
2022-12-11T12:19:42.816Z,4.07
2022-12-11T12:22:37.667Z,3.70
2022-12-11T12:25:19.988Z,4.00
2022-12-11T12:28:07.346Z,4.07
2022-12-11T12:30:50.711Z,3.90
2022-12-11T12:33:31.185Z,3.90
2022-12-11T12:36:08.853Z,4.20
2022-12-11T12:38:45.322Z,4.10
2022-12-11T12:41:20.993Z,3.70
2022-12-11T12:44:02.105Z,4.13
2022-12-11T12:46:41.509Z,4.13
2022-12-11T12:49:15.408Z,4.23
2022-12-11T12:51:45.325Z,3.80
2022-12-11T12:54:19.449Z,3.60
2022-12-11T12:56:51.248Z,4.27
2022-12-11T12:59:26.368Z,6.03
2022-12-11T13:01:58.779Z,5.43
2022-12-11T13:04:55.714Z,4.00
2022-12-11T13:07:31.770Z,3.90
2022-12-11T13:10:07.672Z,4.10
2022-12-11T13:12:46.547Z,4.10
2022-12-11T13:15:34.305Z,3.40
2022-12-11T13:18:06.677Z,4.07
2022-12-11T13:20:52.204Z,4.60
2022-12-11T13:23:29.684Z,4.10
2022-12-11T13:26:01.596Z,4.43
2022-12-11T13:28:53.982Z,4.50
2022-12-11T13:31:35.000Z,5.30
2022-12-11T13:34:20.423Z,4.90
2022-12-11T13:36:53.633Z,4.50
2022-12-11T13:39:28.219Z,4.77
2022-12-11T13:42:04.145Z,4.93
2022-12-11T13:44:41.903Z,6.77
2022-12-11T13:47:17.549Z,11.47
2022-12-11T13:49:50.607Z,8.63
2022-12-11T13:52:23.804Z,11.70
2022-12-11T13:54:56.701Z,10.13
2022-12-11T13:57:28.990Z,11.83
2022-12-11T14:00:01.521Z,13.30
2022-12-11T14:02:39.174Z,12.50
2022-12-11T14:05:13.112Z,12.33
2022-12-11T14:07:51.112Z,11.77
2022-12-11T14:10:25.460Z,10.20
2022-12-11T14:12:59.310Z,18.03
2022-12-11T14:15:34.747Z,11.50
2022-12-11T14:18:06.055Z,10.00
2022-12-11T14:20:39.436Z,10.30
2022-12-11T14:23:22.879Z,9.97
2022-12-11T14:25:59.936Z,10.83
2022-12-11T14:28:44.240Z,8.50
2022-12-11T14:31:25.975Z,10.17
2022-12-11T14:34:02.507Z,7.97
2022-12-11T14:36:39.425Z,7.80
2022-12-11T14:39:17.905Z,6.50
2022-12-11T14:41:59.753Z,6.23
2022-12-11T14:44:37.187Z,6.43
2022-12-11T14:47:17.020Z,7.27
2022-12-11T14:49:53.699Z,12.53
2022-12-11T14:52:30.590Z,9.30
2022-12-11T14:55:08.298Z,13.27
2022-12-11T14:57:44.780Z,11.33
2022-12-11T15:00:28.163Z,9.63
2022-12-11T15:03:05.891Z,8.03
2022-12-11T15:05:41.013Z,8.23
2022-12-11T15:08:25.912Z,9.87
2022-12-11T15:11:08.265Z,10.27
2022-12-11T15:13:41.362Z,10.57
2022-12-11T15:16:11.992Z,10.97
2022-12-11T15:18:44.786Z,8.53
2022-12-11T15:21:17.010Z,12.53
2022-12-11T15:23:53.459Z,16.90
2022-12-11T15:26:33.888Z,8.60
2022-12-11T15:29:06.170Z,9.67
2022-12-11T15:31:36.610Z,17.73
2022-12-11T15:34:25.118Z,10.93
2022-12-11T15:36:54.465Z,9.30
2022-12-11T15:39:23.426Z,10.47
2022-12-11T15:41:52.536Z,11.63
2022-12-11T15:44:24.083Z,12.73
2022-12-11T15:46:53.257Z,10.63
2022-12-11T15:49:24.423Z,12.50
2022-12-11T15:51:55.085Z,14.73
2022-12-11T15:54:24.120Z,11.73
2022-12-11T15:56:53.153Z,10.57
2022-12-11T15:59:22.357Z,10.13
2022-12-11T16:01:51.550Z,11.27
2022-12-11T16:04:20.824Z,13.03
2022-12-11T16:06:49.863Z,13.90
2022-12-11T16:09:20.529Z,28.23
2022-12-11T16:11:49.512Z,13.77
2022-12-11T16:14:18.839Z,12.13
2022-12-11T16:16:47.893Z,11.20
2022-12-11T16:19:17.211Z,11.00
2022-12-11T16:21:46.284Z,11.93
2022-12-11T16:24:16.229Z,9.80
2022-12-11T16:26:46.693Z,10.47
2022-12-11T16:29:15.789Z,12.37
2022-12-11T16:31:45.192Z,13.37
2022-12-11T16:34:14.306Z,12.70
2022-12-11T16:36:44.862Z,15.53
2022-12-11T16:39:14.235Z,17.27
2022-12-11T16:41:43.341Z,13.20
2022-12-11T16:44:14.014Z,13.13
2022-12-11T16:46:43.126Z,17.07
2022-12-11T16:49:12.202Z,22.00
2022-12-11T16:51:41.442Z,21.07
2022-12-11T16:54:10.678Z,21.17
2022-12-11T16:56:40.233Z,24.83
2022-12-11T16:59:09.526Z,19.27
2022-12-11T17:01:40.860Z,16.57
2022-12-11T17:04:10.074Z,15.63
2022-12-11T17:06:39.170Z,20.30
2022-12-11T17:09:08.353Z,14.00
2022-12-11T17:11:37.398Z,16.60
2022-12-11T17:14:06.427Z,13.20
2022-12-11T17:16:35.637Z,12.07
2022-12-11T17:19:07.542Z,12.10
2022-12-11T17:21:36.735Z,11.47
2022-12-11T17:24:06.057Z,11.53
2022-12-11T17:26:35.218Z,12.83
2022-12-11T17:29:04.542Z,20.10
2022-12-11T17:31:33.675Z,24.43
2022-12-11T17:34:02.966Z,20.43
2022-12-11T17:36:33.659Z,20.53
2022-12-11T17:39:02.753Z,18.27
2022-12-11T17:41:31.812Z,28.63
2022-12-11T17:44:01.008Z,23.27
2022-12-11T17:46:30.323Z,18.23
2022-12-11T17:49:00.396Z,17.27
2022-12-11T17:51:29.534Z,19.27
2022-12-11T17:54:00.104Z,14.47
2022-12-11T17:56:29.218Z,14.80
2022-12-11T17:58:59.561Z,20.43
2022-12-11T18:01:28.825Z,23.17
2022-12-11T18:04:00.330Z,25.00
2022-12-11T18:06:29.933Z,23.60
2022-12-11T18:09:00.592Z,20.70
2022-12-11T18:11:29.758Z,20.83
2022-12-11T18:13:58.949Z,26.03
2022-12-11T18:16:30.547Z,22.67
2022-12-11T18:30:48.635Z,15.37
2022-12-11T18:33:18.355Z,16.40
2022-12-11T18:35:51.338Z,17.97
2022-12-11T18:38:20.833Z,18.73
2022-12-11T18:40:49.936Z,16.87
2022-12-11T18:43:20.585Z,18.93
2022-12-11T18:45:49.859Z,18.37
2022-12-11T18:48:18.909Z,20.00
2022-12-11T18:50:48.658Z,22.07
2022-12-11T18:53:18.564Z,20.90
2022-12-11T18:55:49.501Z,18.47
2022-12-11T18:58:21.437Z,18.23
2022-12-11T19:00:50.645Z,20.60
2022-12-11T19:03:19.787Z,19.53
2022-12-11T19:05:48.783Z,20.07
2022-12-11T19:08:18.097Z,19.40
2022-12-11T19:10:48.393Z,27.10
2022-12-11T19:13:17.605Z,25.83
2022-12-11T19:15:52.616Z,23.93
2022-12-11T19:18:25.811Z,23.07
2022-12-11T19:21:06.464Z,26.77
2022-12-11T19:23:40.524Z,22.30
2022-12-11T19:26:15.324Z,19.13
2022-12-11T19:28:48.929Z,19.40
2022-12-11T19:31:28.433Z,20.03
2022-12-11T19:34:02.456Z,20.43
2022-12-11T19:36:38.149Z,19.27
2022-12-11T19:39:12.756Z,18.33
2022-12-11T19:41:48.022Z,18.87
2022-12-11T19:44:21.513Z,17.03
2022-12-11T19:46:55.591Z,15.77
2022-12-11T19:49:28.947Z,15.50
2022-12-11T19:52:02.974Z,21.17
2022-12-11T19:54:34.716Z,23.57
2022-12-11T19:57:04.447Z,16.80
2022-12-11T19:59:33.451Z,16.77
2022-12-11T20:02:04.192Z,17.47
2022-12-11T20:04:33.376Z,16.07
2022-12-11T20:07:02.311Z,16.73
2022-12-11T20:09:33.854Z,18.70
2022-12-11T20:12:03.713Z,17.97
2022-12-11T20:14:32.851Z,18.30
2022-12-11T20:17:14.477Z,17.47
2022-12-11T20:19:44.514Z,19.17
2022-12-11T20:22:13.734Z,16.63
2022-12-11T20:24:42.905Z,15.73
2022-12-11T20:27:12.651Z,17.07
2022-12-11T20:29:41.787Z,16.77
2022-12-11T20:32:12.686Z,17.40
2022-12-11T20:34:41.818Z,19.33
2022-12-11T20:37:10.993Z,19.20
2022-12-11T20:39:39.938Z,18.50
2022-12-11T20:42:11.219Z,17.63
2022-12-11T20:44:45.639Z,16.13
2022-12-11T20:47:21.081Z,18.07
2022-12-11T20:49:51.134Z,16.60
2022-12-11T20:52:21.008Z,16.83
2022-12-11T20:54:50.011Z,17.27
2022-12-11T20:57:19.124Z,17.57
2022-12-11T20:59:49.392Z,17.97
2022-12-11T21:02:20.180Z,18.43
2022-12-11T21:04:49.491Z,17.63
2022-12-11T21:07:18.737Z,12.73
2022-12-11T21:09:47.795Z,9.10
2022-12-11T21:12:16.818Z,7.00
2022-12-11T21:14:46.173Z,6.57
2022-12-11T21:17:15.276Z,6.40
2022-12-11T21:19:45.716Z,5.27
2022-12-11T21:22:14.872Z,3.57
2022-12-11T21:24:44.181Z,3.53
2022-12-11T21:27:13.147Z,3.40
2022-12-11T21:29:42.458Z,3.70
2022-12-11T21:32:11.499Z,3.63
2022-12-11T21:34:40.620Z,3.63
2022-12-11T21:37:11.189Z,6.90
2022-12-11T21:39:40.172Z,9.00
2022-12-11T21:42:09.428Z,9.07
2022-12-11T21:47:29.076Z,10.63
2022-12-11T21:49:58.134Z,11.73
2022-12-11T21:52:28.629Z,13.77
2022-12-11T21:54:58.146Z,15.40
2022-12-11T21:57:27.230Z,14.40
2022-12-11T21:59:56.214Z,16.37
2022-12-11T22:02:25.525Z,17.07
2022-12-11T22:04:54.776Z,17.70
2022-12-11T22:07:24.030Z,18.13
2022-12-11T22:09:54.547Z,18.90
2022-12-11T22:12:26.556Z,21.33
2022-12-11T22:14:55.735Z,20.00
2022-12-11T22:17:24.938Z,23.60
2022-12-11T22:19:55.413Z,26.13
2022-12-11T22:22:24.442Z,25.93
2022-12-11T22:24:55.018Z,25.10
2022-12-11T22:27:24.244Z,27.57
2022-12-11T22:29:56.282Z,29.03
2022-12-11T22:32:25.363Z,33.60
2022-12-11T22:34:54.373Z,31.10
2022-12-11T22:37:23.491Z,25.03
2022-12-11T22:39:53.939Z,21.97
2022-12-11T22:42:23.024Z,21.53
2022-12-11T22:44:52.100Z,20.50
2022-12-11T22:47:21.131Z,20.67
2022-12-11T22:49:51.547Z,19.73
2022-12-11T22:52:20.571Z,19.63
2022-12-11T22:54:49.655Z,19.07
2022-12-11T22:57:20.383Z,18.57
2022-12-11T22:59:49.508Z,18.73
2022-12-11T23:02:18.563Z,17.57
2022-12-11T23:04:48.314Z,19.57
2022-12-11T23:07:17.573Z,18.90
2022-12-11T23:09:46.590Z,24.37
2022-12-11T23:12:15.606Z,21.53
2022-12-11T23:14:46.313Z,18.37
2022-12-11T23:17:15.353Z,17.00
2022-12-11T23:19:46.181Z,17.07
2022-12-11T23:22:15.480Z,15.47
2022-12-11T23:24:44.684Z,14.73
2022-12-11T23:27:13.732Z,14.73
2022-12-11T23:29:43.512Z,14.80
2022-12-11T23:32:14.052Z,15.67
2022-12-11T23:34:43.133Z,14.20
2022-12-11T23:37:12.019Z,12.43
2022-12-11T23:39:41.065Z,10.33
2022-12-11T23:42:11.300Z,10.10
2022-12-11T23:44:40.308Z,9.40
2022-12-11T23:47:09.416Z,9.43
2022-12-11T23:49:39.929Z,8.03
2022-12-11T23:52:11.919Z,8.20
2022-12-11T23:54:41.181Z,8.40
2022-12-11T23:57:10.285Z,7.17
2022-12-11T23:59:39.393Z,6.37
